CheckWX is a tool to help pilots better visualize weather data.  It is not intended as a substitute for an official pre-flight weather briefing.

03:38:14 UTC

CYVC TAF
La Ronge Airport
La Ronge, Canada
TAF CYVC 070038Z 0701/0713 20004KT P6SM BKN008 TEMPO 0701/0702 3SM BR BKN003 FM070200 23008KT P6SM FEW008 TEMPO 0702/0704 BKN008 FM070400 23005KT P6SM SKC RMK NXT FCST BY 070700Z

Dec-7@
01:00 UTC

Dec-7 @ 01:00 UTC

Dec-7@
02:00 UTC

Dec-7 @ 02:00 UTC

TAF CYVC 070038Z 0701/0713 20004KT P6SM BKN008

Expired

Wind
  • 200° at 4 KTS
Cloud Levels
  • Broken at 800' AGL

Dec-7@
01:00 UTC

Dec-7 @ 01:00 UTC

Dec-7@
02:00 UTC

Dec-7 @ 02:00 UTC

TEMPO 0701/0702 3SM BR BKN003

Expired

Conditions
Mist
Cloud Levels
  • Broken at 300' AGL

Dec-7@
02:00 UTC

Dec-7 @ 02:00 UTC

Dec-7@
04:00 UTC

Dec-7 @ 04:00 UTC

FM070200 23008KT P6SM FEW008

From

From Standard forecast or significant change

Wind
  • 230° at 8 KTS
Cloud Levels
  • Few at 800' AGL

Dec-7@
02:00 UTC

Dec-7 @ 02:00 UTC

Dec-7@
04:00 UTC

Dec-7 @ 04:00 UTC

TEMPO 0702/0704 BKN008

Temporary

Temporary Changes expected for less than half the time period

Cloud Levels
  • Broken at 800' AGL

Dec-7@
04:00 UTC

Dec-7 @ 04:00 UTC

Dec-7@
13:00 UTC

Dec-7 @ 13:00 UTC

FM070400 23005KT P6SM SKC RMK NXT FCST BY 070700Z

From

From Standard forecast or significant change

Wind
  • 230° at 5 KTS
Cloud Levels
  • Clear skies